createdAt,value
2018-10-12T00:01:26.183Z,23.90
2018-10-12T00:03:55.230Z,29.83
2018-10-12T00:06:24.603Z,29.57
2018-10-12T00:08:53.546Z,25.03
2018-10-12T00:11:22.390Z,27.27
2018-10-12T00:13:51.922Z,32.43
2018-10-12T00:16:20.899Z,24.20
2018-10-12T00:18:49.760Z,21.73
2018-10-12T00:21:18.688Z,23.50
2018-10-12T00:23:47.524Z,25.10
2018-10-12T00:26:16.590Z,24.10
2018-10-12T00:28:45.997Z,23.47
2018-10-12T00:31:14.889Z,27.17
2018-10-12T00:33:44.032Z,27.10
2018-10-12T00:36:12.979Z,23.33
2018-10-12T00:38:42.043Z,28.37
2018-10-12T00:41:11.027Z,25.73
2018-10-12T00:43:39.896Z,29.33
2018-10-12T00:46:08.961Z,26.13
2018-10-12T00:48:37.893Z,22.00
2018-10-12T00:51:06.842Z,26.20
2018-10-12T00:53:36.334Z,26.00
2018-10-12T00:56:05.554Z,29.00
2018-10-12T00:58:34.561Z,27.43
2018-10-12T01:01:03.698Z,25.60
2018-10-12T01:03:32.729Z,25.37
2018-10-12T01:06:01.949Z,23.00
2018-10-12T01:08:31.422Z,29.10
2018-10-12T01:11:00.316Z,25.97
2018-10-12T01:13:29.333Z,28.60
2018-10-12T01:15:58.197Z,28.00
2018-10-12T01:18:27.722Z,26.70
2018-10-12T01:20:56.693Z,36.83
2018-10-12T01:23:25.669Z,25.67
2018-10-12T01:25:54.596Z,24.60
2018-10-12T01:28:23.787Z,25.63
2018-10-12T01:30:52.646Z,28.33
2018-10-12T01:33:21.647Z,26.10
2018-10-12T01:35:50.705Z,26.83
2018-10-12T01:38:19.652Z,27.90
2018-10-12T01:40:48.596Z,27.10
2018-10-12T01:43:17.747Z,25.83
2018-10-12T01:45:46.697Z,34.03
2018-10-12T01:48:16.537Z,29.83
2018-10-12T01:50:45.561Z,27.60
2018-10-12T01:53:14.508Z,29.70
2018-10-12T01:55:43.896Z,32.07
2018-10-12T01:58:12.968Z,30.97
2018-10-12T02:00:42.089Z,28.23
2018-10-12T02:03:11.652Z,24.87
2018-10-12T02:05:40.586Z,33.13
2018-10-12T02:08:09.723Z,34.27
2018-10-12T02:10:39.641Z,30.70
2018-10-12T02:13:08.493Z,27.00
2018-10-12T02:15:39.266Z,25.97
2018-10-12T02:18:08.975Z,27.40
2018-10-12T02:20:37.945Z,30.97
2018-10-12T02:23:07.248Z,29.43
2018-10-12T02:25:37.098Z,30.53
2018-10-12T02:28:06.088Z,27.97
2018-10-12T02:30:35.143Z,29.20
2018-10-12T02:33:03.943Z,37.50
2018-10-12T02:35:32.973Z,27.43
2018-10-12T02:38:02.541Z,25.57
2018-10-12T02:40:31.897Z,28.80
2018-10-12T02:43:00.923Z,29.80
2018-10-12T02:45:30.079Z,28.40
2018-10-12T02:47:59.172Z,31.07
2018-10-12T02:50:28.104Z,28.17
2018-10-12T02:52:57.103Z,30.60
2018-10-12T02:55:25.996Z,29.43
2018-10-12T02:57:55.038Z,28.80
2018-10-12T03:00:23.978Z,39.73
2018-10-12T03:02:53.140Z,31.37
2018-10-12T03:05:22.084Z,33.30
2018-10-12T03:07:52.234Z,30.87
2018-10-12T03:10:21.226Z,28.87
2018-10-12T03:12:50.263Z,27.73
2018-10-12T03:15:19.283Z,33.63
2018-10-12T03:17:48.233Z,33.80
2018-10-12T03:20:17.292Z,29.20
2018-10-12T03:22:46.606Z,30.40
2018-10-12T03:25:15.714Z,31.83
2018-10-12T03:27:55.653Z,30.40
2018-10-12T03:30:24.778Z,31.27
2018-10-12T03:32:53.831Z,31.50
2018-10-12T03:35:22.856Z,27.57
2018-10-12T03:37:51.950Z,31.73
2018-10-12T03:40:21.290Z,31.10
2018-10-12T03:42:50.311Z,32.03
2018-10-12T03:45:20.118Z,30.80
2018-10-12T03:47:49.282Z,28.43
2018-10-12T03:50:18.972Z,35.00
2018-10-12T03:52:48.176Z,30.53
2018-10-12T03:55:17.083Z,36.17
2018-10-12T03:57:46.069Z,30.70
2018-10-12T04:00:14.978Z,30.87
2018-10-12T04:02:43.978Z,31.13
2018-10-12T04:05:13.306Z,33.87
2018-10-12T04:07:42.338Z,31.20
2018-10-12T04:10:11.474Z,29.00
2018-10-12T04:12:40.766Z,27.83
2018-10-12T04:15:09.951Z,34.97
2018-10-12T04:17:39.228Z,33.83
2018-10-12T04:20:08.484Z,30.93
2018-10-12T04:22:37.402Z,31.47
2018-10-12T04:25:06.738Z,33.57
2018-10-12T04:27:35.757Z,32.43
2018-10-12T04:30:05.031Z,29.87
2018-10-12T04:32:34.442Z,29.40
2018-10-12T04:35:03.927Z,33.67
2018-10-12T04:37:32.866Z,31.00
2018-10-12T04:40:15.652Z,31.10
2018-10-12T04:42:44.575Z,36.80
2018-10-12T04:45:13.679Z,32.33
2018-10-12T04:47:42.632Z,34.73
2018-10-12T04:50:11.723Z,32.70
2018-10-12T04:52:40.710Z,33.13
2018-10-12T04:55:10.346Z,35.10
2018-10-12T04:57:39.535Z,30.30
2018-10-12T05:00:08.836Z,33.07
2018-10-12T05:02:37.881Z,34.00
2018-10-12T05:05:07.146Z,34.30
2018-10-12T05:07:36.654Z,32.63
2018-10-12T05:10:05.820Z,27.00
2018-10-12T05:12:34.915Z,28.53
2018-10-12T05:15:08.733Z,30.37
2018-10-12T05:17:38.225Z,31.30
2018-10-12T05:20:07.213Z,32.27
2018-10-12T05:22:36.213Z,32.87
2018-10-12T05:25:05.073Z,29.53
2018-10-12T05:27:34.167Z,30.90
2018-10-12T05:30:03.380Z,27.30
2018-10-12T05:32:33.012Z,28.10
2018-10-12T05:35:02.274Z,33.80
2018-10-12T05:37:31.108Z,29.27
2018-10-12T05:40:00.169Z,29.80
2018-10-12T05:42:29.515Z,34.43
2018-10-12T05:44:58.657Z,34.60
2018-10-12T05:47:27.718Z,35.93
2018-10-12T05:50:04.481Z,29.50
2018-10-12T05:52:34.203Z,31.87
2018-10-12T05:55:03.524Z,32.60
2018-10-12T05:57:34.495Z,36.43
2018-10-12T06:00:03.521Z,33.83
2018-10-12T06:02:32.914Z,32.83
2018-10-12T06:05:02.298Z,39.53
2018-10-12T06:07:31.370Z,33.70
2018-10-12T06:10:00.736Z,31.77
2018-10-12T06:12:29.819Z,32.00
2018-10-12T06:14:58.874Z,30.97
2018-10-12T06:17:28.275Z,37.37
2018-10-12T06:19:58.322Z,33.00
2018-10-12T06:22:27.290Z,34.70
2018-10-12T06:24:56.258Z,44.83
2018-10-12T06:27:25.199Z,38.57
2018-10-12T06:29:54.221Z,34.57
2018-10-12T06:32:23.115Z,33.90
2018-10-12T06:34:52.173Z,46.50
2018-10-12T06:37:21.146Z,36.80
2018-10-12T06:39:50.107Z,35.43
2018-10-12T06:42:19.210Z,48.13
2018-10-12T06:44:48.112Z,39.73
2018-10-12T06:47:17.079Z,42.27
2018-10-12T06:49:46.243Z,37.83
2018-10-12T06:52:16.281Z,41.13
2018-10-12T06:54:45.236Z,33.87
2018-10-12T06:57:14.844Z,38.77
2018-10-12T06:59:43.744Z,39.83
2018-10-12T07:02:16.779Z,44.40
2018-10-12T07:04:46.607Z,32.13
2018-10-12T07:07:16.139Z,38.03
2018-10-12T07:09:45.359Z,38.23
2018-10-12T07:12:15.052Z,42.57
2018-10-12T07:14:44.223Z,30.97
2018-10-12T07:17:13.090Z,31.57
2018-10-12T07:19:43.254Z,54.53
2018-10-12T07:22:12.010Z,39.70
2018-10-12T07:24:41.846Z,36.63
2018-10-12T07:27:11.325Z,37.20
2018-10-12T07:29:40.486Z,38.77
2018-10-12T07:32:09.603Z,40.53
2018-10-12T07:34:38.664Z,35.90
2018-10-12T07:37:08.247Z,36.60
2018-10-12T07:39:37.371Z,34.77
2018-10-12T07:42:06.586Z,43.90
2018-10-12T07:44:36.022Z,34.30
2018-10-12T07:47:04.994Z,41.20
2018-10-12T07:49:33.993Z,35.00
2018-10-12T07:52:03.042Z,33.70
2018-10-12T07:54:31.970Z,43.93
2018-10-12T07:57:05.444Z,37.00
2018-10-12T07:59:34.362Z,32.33
2018-10-12T08:02:03.354Z,39.30
2018-10-12T08:04:32.273Z,41.23
2018-10-12T08:07:01.281Z,35.67
2018-10-12T08:09:30.254Z,35.67
2018-10-12T08:11:59.516Z,38.93
2018-10-12T08:14:28.480Z,36.03
2018-10-12T08:16:57.400Z,33.07
2018-10-12T08:19:26.515Z,38.33
2018-10-12T08:21:56.483Z,37.73
2018-10-12T08:24:25.509Z,37.03
2018-10-12T08:26:54.505Z,42.60
2018-10-12T08:29:25.200Z,34.77
2018-10-12T08:31:54.313Z,37.33
2018-10-12T08:34:23.806Z,35.60
2018-10-12T08:36:52.638Z,34.80
2018-10-12T08:39:21.690Z,34.20
2018-10-12T08:41:51.374Z,28.00
2018-10-12T08:44:20.391Z,31.53
2018-10-12T08:46:49.331Z,36.10
2018-10-12T08:49:18.223Z,34.27
2018-10-12T08:51:47.167Z,35.90
2018-10-12T08:54:16.211Z,34.03
2018-10-12T08:56:45.379Z,28.10
2018-10-12T08:59:14.354Z,33.63
2018-10-12T09:01:43.346Z,28.07
2018-10-12T09:04:12.550Z,36.43
2018-10-12T09:06:41.482Z,27.63
2018-10-12T09:09:11.464Z,31.13
2018-10-12T09:11:41.063Z,32.63
2018-10-12T09:14:10.368Z,26.00
2018-10-12T09:16:39.302Z,32.57
2018-10-12T09:19:08.739Z,26.93
2018-10-12T09:21:37.726Z,28.53
2018-10-12T09:24:07.997Z,25.20
2018-10-12T09:26:37.036Z,22.70
2018-10-12T09:29:05.998Z,23.13
2018-10-12T09:31:35.087Z,23.43
2018-10-12T09:34:04.136Z,24.57
2018-10-12T09:36:33.097Z,28.07
2018-10-12T09:39:02.157Z,26.83
2018-10-12T09:41:30.914Z,33.30
2018-10-12T09:44:00.477Z,23.03
2018-10-12T09:46:29.451Z,31.60
2018-10-12T09:48:58.490Z,24.67
2018-10-12T09:51:27.466Z,23.10
2018-10-12T09:53:57.158Z,20.30
2018-10-12T09:56:26.125Z,21.00
2018-10-12T09:58:55.995Z,38.60
2018-10-12T10:01:30.036Z,20.20
2018-10-12T10:04:04.187Z,21.83
2018-10-12T10:06:33.219Z,19.50
2018-10-12T10:09:03.349Z,24.43
2018-10-12T10:11:32.559Z,19.70
2018-10-12T10:14:01.626Z,22.63
2018-10-12T10:16:30.736Z,20.70
2018-10-12T10:18:59.702Z,19.90
2018-10-12T10:21:28.823Z,26.87
2018-10-12T10:23:58.316Z,17.17
2018-10-12T10:26:27.310Z,23.40
2018-10-12T10:28:56.329Z,19.00
2018-10-12T10:31:25.359Z,20.50
2018-10-12T10:33:54.503Z,29.37
2018-10-12T10:36:24.102Z,19.27
2018-10-12T10:38:53.131Z,19.83
2018-10-12T10:41:22.166Z,21.60
2018-10-12T10:43:51.422Z,20.10
2018-10-12T10:46:20.526Z,18.37
2018-10-12T10:48:49.693Z,19.43
2018-10-12T10:51:18.690Z,17.90
2018-10-12T10:53:47.785Z,22.10
2018-10-12T10:56:17.240Z,16.10
2018-10-12T10:58:46.400Z,20.13
2018-10-12T11:01:15.420Z,18.47
2018-10-12T11:03:44.282Z,16.27
2018-10-12T11:06:13.315Z,15.00
2018-10-12T11:08:42.232Z,20.10
2018-10-12T11:11:11.174Z,15.30
2018-10-12T11:13:40.142Z,14.27
2018-10-12T11:16:09.185Z,16.33
2018-10-12T11:18:38.156Z,18.63
2018-10-12T11:21:08.192Z,22.50
2018-10-12T11:23:37.082Z,19.50
2018-10-12T11:26:06.297Z,21.13
2018-10-12T11:28:35.220Z,20.67
2018-10-12T11:31:04.354Z,22.10
2018-10-12T11:33:33.368Z,18.00
2018-10-12T11:36:02.410Z,15.10
2018-10-12T11:38:31.521Z,16.83
2018-10-12T11:41:00.668Z,15.87
2018-10-12T11:43:35.230Z,16.60
2018-10-12T11:46:04.059Z,17.00
2018-10-12T11:48:33.114Z,19.33
2018-10-12T11:51:02.586Z,14.17
2018-10-12T11:53:31.650Z,15.00
2018-10-12T11:56:00.605Z,15.80
2018-10-12T11:58:29.740Z,13.53
2018-10-12T12:00:58.872Z,15.10
2018-10-12T12:03:27.966Z,14.33
2018-10-12T12:05:56.917Z,13.37
2018-10-12T12:08:25.912Z,18.80
2018-10-12T12:10:54.914Z,14.60
2018-10-12T12:13:24.181Z,14.70
2018-10-12T12:15:53.807Z,19.10
2018-10-12T12:18:22.748Z,23.33
2018-10-12T12:20:51.806Z,13.60
2018-10-12T12:23:20.671Z,11.77
2018-10-12T12:25:49.621Z,14.10
2018-10-12T12:28:18.642Z,16.13
2018-10-12T12:30:47.553Z,23.43
2018-10-12T12:33:17.034Z,16.03
2018-10-12T12:35:46.832Z,15.77
2018-10-12T12:38:15.803Z,13.13
2018-10-12T12:40:44.761Z,16.20
2018-10-12T12:43:13.669Z,12.63
2018-10-12T12:45:42.563Z,14.10
2018-10-12T12:48:12.664Z,14.63
2018-10-12T12:50:41.870Z,18.17
2018-10-12T12:53:10.733Z,13.87
2018-10-12T12:55:40.542Z,15.07
2018-10-12T12:58:09.551Z,17.40
2018-10-12T13:00:38.754Z,18.43
2018-10-12T13:03:07.919Z,12.47
2018-10-12T13:05:37.476Z,11.50
2018-10-12T13:08:06.554Z,11.33
2018-10-12T13:10:35.595Z,16.40
2018-10-12T13:13:04.435Z,12.67
2018-10-12T13:15:33.770Z,16.97
2018-10-12T13:18:02.592Z,17.03
2018-10-12T13:20:31.520Z,18.00
2018-10-12T13:23:00.579Z,18.03
2018-10-12T13:25:29.691Z,31.17
2018-10-12T13:27:59.214Z,12.23
2018-10-12T13:30:28.302Z,16.20
2018-10-12T13:32:57.667Z,13.47
2018-10-12T13:35:27.173Z,17.30
2018-10-12T13:37:56.122Z,13.23
2018-10-12T13:40:24.947Z,14.67
2018-10-12T13:42:54.371Z,16.03
2018-10-12T13:45:23.375Z,16.13
2018-10-12T13:47:52.429Z,11.40
2018-10-12T13:50:22.276Z,13.50
2018-10-12T13:52:51.211Z,14.83
2018-10-12T13:55:20.055Z,15.03
2018-10-12T13:57:49.015Z,18.80
2018-10-12T14:00:17.951Z,13.80
2018-10-12T14:02:47.699Z,14.80
2018-10-12T14:05:17.566Z,10.97
2018-10-12T14:07:46.601Z,11.87
2018-10-12T14:10:16.086Z,13.47
2018-10-12T14:12:45.230Z,14.93
2018-10-12T14:15:14.193Z,11.33
2018-10-12T14:17:43.270Z,14.20
2018-10-12T14:20:12.179Z,12.30
2018-10-12T14:22:41.093Z,16.80
2018-10-12T14:25:10.513Z,17.10
2018-10-12T14:27:39.520Z,11.03
2018-10-12T14:30:08.719Z,12.67
2018-10-12T14:32:37.741Z,14.27
2018-10-12T14:35:06.912Z,13.03
2018-10-12T14:37:36.074Z,12.03
2018-10-12T14:40:05.171Z,11.70
2018-10-12T14:42:34.127Z,11.73
2018-10-12T14:45:04.311Z,16.40
2018-10-12T14:47:34.194Z,13.63
2018-10-12T14:50:03.499Z,16.10
2018-10-12T14:52:32.438Z,17.93
2018-10-12T14:55:01.464Z,11.40
2018-10-12T14:57:30.577Z,14.23
2018-10-12T14:59:59.612Z,16.90
2018-10-12T15:02:28.532Z,16.20
2018-10-12T15:04:57.632Z,21.17
2018-10-12T15:07:26.661Z,14.80
2018-10-12T15:09:56.225Z,15.00
2018-10-12T15:12:25.282Z,17.10
2018-10-12T15:15:05.341Z,14.40
2018-10-12T15:17:35.023Z,14.77
2018-10-12T15:20:04.116Z,13.07
2018-10-12T15:22:33.260Z,14.53
2018-10-12T15:25:02.241Z,15.47
2018-10-12T15:27:31.351Z,16.10
2018-10-12T15:30:01.276Z,16.10
2018-10-12T15:32:30.687Z,13.63
2018-10-12T15:34:59.824Z,13.87
2018-10-12T15:37:29.444Z,15.40
2018-10-12T15:39:58.893Z,15.43
2018-10-12T15:42:27.998Z,13.43
2018-10-12T15:44:57.299Z,14.63
2018-10-12T15:47:26.387Z,15.60
2018-10-12T15:49:55.517Z,13.93
2018-10-12T15:52:25.387Z,15.03
2018-10-12T15:54:54.550Z,14.23
2018-10-12T15:57:28.590Z,15.53
2018-10-12T15:59:57.411Z,19.33
2018-10-12T16:02:26.484Z,13.90
2018-10-12T16:04:55.429Z,24.20
2018-10-12T16:07:25.296Z,14.80
2018-10-12T16:09:54.896Z,17.23
2018-10-12T16:12:24.454Z,17.53
2018-10-12T16:14:53.859Z,17.23
2018-10-12T16:17:22.982Z,26.30
2018-10-12T16:19:52.028Z,13.40
2018-10-12T16:22:21.252Z,20.20
2018-10-12T16:25:01.346Z,15.00
2018-10-12T16:27:30.926Z,17.23
2018-10-12T16:29:59.980Z,17.43
2018-10-12T16:32:29.534Z,19.07
2018-10-12T16:34:58.328Z,17.80
2018-10-12T16:37:27.497Z,17.20
2018-10-12T16:39:56.707Z,15.10
2018-10-12T16:42:25.805Z,14.87
2018-10-12T16:44:55.162Z,19.90
2018-10-12T16:47:24.544Z,15.40
2018-10-12T16:49:53.825Z,15.47
2018-10-12T16:52:22.787Z,24.87
2018-10-12T16:54:51.926Z,23.13
2018-10-12T16:57:25.035Z,19.77
2018-10-12T16:59:54.615Z,16.80
2018-10-12T17:02:23.636Z,16.33
2018-10-12T17:04:52.752Z,18.10
2018-10-12T17:07:21.804Z,14.97
2018-10-12T17:09:51.098Z,15.90
2018-10-12T17:12:20.065Z,18.30
2018-10-12T17:14:49.209Z,20.03
2018-10-12T17:17:18.194Z,17.43
2018-10-12T17:19:47.458Z,21.87
2018-10-12T17:22:16.297Z,24.90
2018-10-12T17:24:45.268Z,23.83
2018-10-12T17:27:14.442Z,29.47
2018-10-12T17:29:43.348Z,23.97
2018-10-12T17:32:12.378Z,25.63
2018-10-12T17:34:41.284Z,17.03
2018-10-12T17:37:10.975Z,15.97
2018-10-12T17:39:40.150Z,22.80
2018-10-12T17:42:16.590Z,19.40
2018-10-12T17:44:46.197Z,15.50
2018-10-12T17:47:15.992Z,22.03
2018-10-12T17:49:45.724Z,19.87
2018-10-12T17:52:14.969Z,18.60
2018-10-12T17:54:43.993Z,17.50
2018-10-12T17:57:13.378Z,19.97
2018-10-12T17:59:43.178Z,16.50
2018-10-12T18:02:12.182Z,18.63
2018-10-12T18:04:41.262Z,21.57
2018-10-12T18:07:10.445Z,20.00
2018-10-12T18:09:39.977Z,19.60
2018-10-12T18:12:09.245Z,25.70
2018-10-12T18:14:38.472Z,26.80
2018-10-12T18:17:07.758Z,26.57
2018-10-12T18:19:36.733Z,21.87
2018-10-12T18:22:06.214Z,18.83
2018-10-12T18:24:35.882Z,23.83
2018-10-12T18:27:05.111Z,20.93
2018-10-12T18:29:34.139Z,21.50
2018-10-12T18:32:03.371Z,18.53
2018-10-12T18:34:32.369Z,25.63
2018-10-12T18:37:01.477Z,24.73
2018-10-12T18:39:31.013Z,21.03
2018-10-12T18:42:00.775Z,30.07
2018-10-12T18:44:29.754Z,26.23
2018-10-12T18:46:59.163Z,29.40
2018-10-12T18:49:28.756Z,26.23
2018-10-12T18:51:57.783Z,17.30
2018-10-12T18:54:26.679Z,28.83
2018-10-12T18:56:56.063Z,24.57
2018-10-12T18:59:25.085Z,30.20
2018-10-12T19:02:00.797Z,29.30
2018-10-12T19:04:30.005Z,19.23
2018-10-12T19:06:59.316Z,14.90
2018-10-12T19:09:29.240Z,26.17
2018-10-12T19:11:58.319Z,17.47
2018-10-12T19:14:27.408Z,29.43
2018-10-12T19:16:56.350Z,15.87
2018-10-12T19:19:25.358Z,30.60
2018-10-12T19:21:55.212Z,18.40
2018-10-12T19:24:24.477Z,17.70
2018-10-12T19:26:53.608Z,27.03
2018-10-12T19:29:22.690Z,27.20
2018-10-12T19:31:51.733Z,20.70
2018-10-12T19:34:21.132Z,18.90
2018-10-12T19:36:50.260Z,18.90
2018-10-12T19:39:19.276Z,19.53
2018-10-12T19:41:48.441Z,19.73
2018-10-12T19:44:17.450Z,25.33
2018-10-12T19:46:46.741Z,23.37
2018-10-12T19:49:16.187Z,17.63
2018-10-12T19:51:45.522Z,18.13
2018-10-12T19:54:14.583Z,18.00
2018-10-12T19:56:43.683Z,19.07
2018-10-12T19:59:12.847Z,14.03
2018-10-12T20:01:41.988Z,20.53
2018-10-12T20:04:11.206Z,16.20
2018-10-12T20:06:40.206Z,23.20
2018-10-12T20:09:11.420Z,21.43
2018-10-12T20:11:41.022Z,24.03
2018-10-12T20:14:10.156Z,20.10
2018-10-12T20:16:39.338Z,22.17
2018-10-12T20:19:08.486Z,17.73
2018-10-12T20:21:37.866Z,17.50
2018-10-12T20:24:07.542Z,19.53
2018-10-12T20:26:36.639Z,17.03
2018-10-12T20:29:05.616Z,16.07
2018-10-12T20:31:34.845Z,18.20
2018-10-12T20:34:04.132Z,22.53
2018-10-12T20:36:33.218Z,15.07
2018-10-12T20:39:02.742Z,20.40
2018-10-12T20:41:32.382Z,25.80
2018-10-12T20:44:01.538Z,17.77
2018-10-12T20:46:30.635Z,16.90
2018-10-12T20:48:59.684Z,23.17
2018-10-12T20:51:28.676Z,21.03
2018-10-12T20:53:57.921Z,20.67
2018-10-12T20:56:26.860Z,21.97
2018-10-12T20:58:55.792Z,21.80
2018-10-12T21:01:24.877Z,26.17
2018-10-12T21:03:53.869Z,27.10
2018-10-12T21:06:22.941Z,23.90
2018-10-12T21:08:52.142Z,22.20
2018-10-12T21:11:21.273Z,25.50
2018-10-12T21:13:50.581Z,20.40
2018-10-12T21:16:19.728Z,19.03
2018-10-12T21:18:48.799Z,22.70
2018-10-12T21:21:17.886Z,19.13
2018-10-12T21:23:46.670Z,21.47
2018-10-12T21:26:15.758Z,21.80
2018-10-12T21:28:44.712Z,20.60
2018-10-12T21:31:13.808Z,20.50
2018-10-12T21:33:43.120Z,22.20
2018-10-12T21:36:12.947Z,19.60
2018-10-12T21:38:42.037Z,25.87
2018-10-12T21:41:11.116Z,28.47
2018-10-12T21:43:40.649Z,21.10
2018-10-12T21:46:09.570Z,19.23
2018-10-12T21:48:39.048Z,18.37
2018-10-12T21:51:09.084Z,21.63
2018-10-12T21:53:38.220Z,23.40
2018-10-12T21:56:07.307Z,22.70
2018-10-12T21:58:36.132Z,23.47
2018-10-12T22:01:06.136Z,26.17
2018-10-12T22:03:36.386Z,19.73
2018-10-12T22:06:05.639Z,18.83
2018-10-12T22:08:39.911Z,18.40
2018-10-12T22:11:08.884Z,20.60
2018-10-12T22:13:38.951Z,25.40
2018-10-12T22:16:08.189Z,20.30
2018-10-12T22:18:37.719Z,25.53
2018-10-12T22:21:07.124Z,25.17
2018-10-12T22:23:36.533Z,19.43
2018-10-12T22:26:05.553Z,23.17
2018-10-12T22:28:34.854Z,26.03
2018-10-12T22:31:03.820Z,24.60
2018-10-12T22:33:32.872Z,25.23
2018-10-12T22:36:01.842Z,21.57
2018-10-12T22:38:31.421Z,25.67
2018-10-12T22:41:00.403Z,20.73
2018-10-12T22:43:29.433Z,28.90
2018-10-12T22:45:58.698Z,22.13
2018-10-12T22:48:28.327Z,22.70
2018-10-12T22:50:57.260Z,22.60
2018-10-12T22:53:26.182Z,23.13
2018-10-12T22:55:55.142Z,20.73
2018-10-12T22:58:24.091Z,23.07
2018-10-12T23:00:53.059Z,22.73
2018-10-12T23:03:21.984Z,25.33
2018-10-12T23:05:51.386Z,30.30
2018-10-12T23:08:20.439Z,21.80
2018-10-12T23:10:49.364Z,25.50
2018-10-12T23:13:18.462Z,20.07
2018-10-12T23:15:50.288Z,24.07
2018-10-12T23:18:19.319Z,24.90
2018-10-12T23:20:48.297Z,24.70
2018-10-12T23:23:17.347Z,21.80
2018-10-12T23:25:46.758Z,30.17
2018-10-12T23:28:15.885Z,24.60
2018-10-12T23:30:44.912Z,23.30
2018-10-12T23:33:24.840Z,21.97
2018-10-12T23:35:53.955Z,23.40
2018-10-12T23:38:22.930Z,23.67
2018-10-12T23:40:52.350Z,27.47
2018-10-12T23:43:21.327Z,30.20
2018-10-12T23:45:50.418Z,27.50
2018-10-12T23:48:19.895Z,28.47
2018-10-12T23:50:49.044Z,23.27
2018-10-12T23:53:18.450Z,20.20
2018-10-12T23:55:47.530Z,25.27
2018-10-12T23:58:16.740Z,25.07
